createdAt,value
2017-09-15T00:00:15.072Z,12.20
2017-09-15T00:02:42.008Z,12.20
2017-09-15T00:05:09.729Z,12.20
2017-09-15T00:07:37.388Z,12.20
2017-09-15T00:10:05.002Z,12.20
2017-09-15T00:12:31.941Z,12.20
2017-09-15T00:14:58.823Z,12.20
2017-09-15T00:17:25.685Z,12.20
2017-09-15T00:19:53.376Z,12.20
2017-09-15T00:22:20.332Z,12.20
2017-09-15T00:24:47.299Z,12.20
2017-09-15T00:27:14.156Z,12.20
2017-09-15T00:29:41.120Z,12.20
2017-09-15T00:32:08.005Z,12.20
2017-09-15T00:34:34.949Z,12.10
2017-09-15T00:37:01.825Z,12.20
2017-09-15T00:39:28.716Z,12.10
2017-09-15T00:41:56.425Z,12.10
2017-09-15T00:44:23.304Z,12.10
2017-09-15T00:46:50.195Z,12.00
2017-09-15T00:49:17.204Z,12.00
2017-09-15T00:51:44.305Z,12.00
2017-09-15T00:54:11.268Z,12.00
2017-09-15T00:56:38.224Z,12.00
2017-09-15T00:59:05.191Z,11.90
2017-09-15T01:01:32.088Z,11.90
2017-09-15T01:03:59.056Z,11.90
2017-09-15T01:06:26.081Z,11.90
2017-09-15T01:08:53.004Z,11.80
2017-09-15T01:11:19.979Z,11.90
2017-09-15T01:13:46.865Z,11.90
2017-09-15T01:16:13.721Z,11.90
2017-09-15T01:18:40.641Z,11.90
2017-09-15T01:21:07.492Z,11.90
2017-09-15T01:23:34.461Z,11.80
2017-09-15T01:26:01.324Z,11.80
2017-09-15T01:28:28.201Z,11.80
2017-09-15T01:30:55.173Z,11.80
2017-09-15T01:33:22.094Z,11.80
2017-09-15T01:35:48.950Z,11.70
2017-09-15T01:38:16.157Z,11.70
2017-09-15T01:40:43.036Z,11.70
2017-09-15T01:43:09.884Z,11.60
2017-09-15T01:45:36.832Z,11.50
2017-09-15T01:48:03.702Z,11.50
2017-09-15T01:50:30.706Z,11.50
2017-09-15T01:52:57.664Z,11.50
2017-09-15T01:55:24.602Z,11.50
2017-09-15T01:57:51.478Z,11.50
2017-09-15T02:00:18.683Z,11.50
2017-09-15T02:02:45.572Z,11.50
2017-09-15T02:05:12.444Z,11.50
2017-09-15T02:07:40.144Z,11.50
2017-09-15T02:10:07.073Z,11.50
2017-09-15T02:12:33.961Z,11.50
2017-09-15T02:15:00.897Z,11.60
2017-09-15T02:17:27.778Z,11.60
2017-09-15T02:19:54.725Z,11.60
2017-09-15T02:22:21.629Z,11.70
2017-09-15T02:24:48.573Z,11.70
2017-09-15T02:27:15.471Z,11.70
2017-09-15T02:29:43.151Z,11.80
2017-09-15T02:32:10.024Z,11.80
2017-09-15T02:34:36.887Z,11.90
2017-09-15T02:37:03.816Z,11.90
2017-09-15T02:39:30.753Z,11.90
2017-09-15T02:41:57.680Z,11.90
2017-09-15T02:44:24.689Z,11.90
2017-09-15T02:46:51.646Z,12.00
2017-09-15T02:49:18.605Z,12.00
2017-09-15T02:51:45.578Z,12.00
2017-09-15T02:54:12.432Z,12.00
2017-09-15T02:56:39.366Z,12.00
2017-09-15T02:59:06.253Z,12.00
2017-09-15T03:01:33.209Z,12.00
2017-09-15T03:04:00.111Z,12.00
2017-09-15T03:06:27.049Z,12.00
2017-09-15T03:08:53.970Z,12.00
2017-09-15T03:11:20.844Z,12.10
2017-09-15T03:13:47.769Z,12.10
2017-09-15T03:16:15.484Z,12.10
2017-09-15T03:18:42.449Z,12.10
2017-09-15T03:21:09.499Z,12.20
2017-09-15T03:23:36.375Z,12.10
2017-09-15T03:26:03.251Z,12.20
2017-09-15T03:28:30.272Z,12.20
2017-09-15T03:30:57.158Z,12.30
2017-09-15T03:33:24.024Z,12.30
2017-09-15T03:35:50.996Z,12.30
2017-09-15T03:38:17.864Z,12.30
2017-09-15T03:40:44.760Z,12.20
2017-09-15T03:43:11.673Z,12.20
2017-09-15T03:45:38.677Z,12.20
2017-09-15T03:48:06.350Z,12.30
2017-09-15T03:50:33.295Z,12.30
2017-09-15T03:53:00.169Z,12.30
2017-09-15T03:55:27.134Z,12.30
2017-09-15T03:57:54.109Z,12.20
2017-09-15T04:00:21.012Z,12.20
2017-09-15T04:02:47.993Z,12.20
2017-09-15T04:05:14.963Z,12.20
2017-09-15T04:07:44.645Z,12.20
2017-09-15T04:10:11.579Z,12.20
2017-09-15T04:12:38.551Z,12.20
2017-09-15T04:15:05.456Z,12.20
2017-09-15T04:17:32.312Z,12.10
2017-09-15T04:20:13.852Z,12.10
2017-09-15T04:22:55.081Z,12.10
2017-09-15T04:25:23.099Z,12.00
2017-09-15T04:28:05.844Z,12.00
2017-09-15T04:33:32.991Z,11.90
2017-09-15T04:36:10.413Z,11.90
2017-09-15T04:38:37.665Z,11.90
2017-09-15T04:41:04.675Z,11.80
2017-09-15T04:43:31.543Z,11.80
2017-09-15T04:45:58.495Z,11.70
2017-09-15T04:48:25.369Z,11.80
2017-09-15T04:50:52.316Z,11.70
2017-09-15T04:53:19.236Z,11.80
2017-09-15T04:55:46.091Z,11.70
2017-09-15T04:58:13.123Z,11.70
2017-09-15T05:00:40.015Z,11.80
2017-09-15T05:03:06.868Z,11.80
2017-09-15T05:05:33.820Z,11.80
2017-09-15T05:08:01.872Z,11.80
2017-09-15T05:10:28.790Z,11.70
2017-09-15T05:12:55.712Z,11.70
2017-09-15T05:15:22.565Z,11.80
2017-09-15T05:17:49.509Z,11.80
2017-09-15T05:20:16.365Z,11.90
2017-09-15T05:22:43.327Z,12.00
2017-09-15T05:25:10.260Z,12.00
2017-09-15T05:27:37.168Z,12.00
2017-09-15T05:30:04.112Z,11.90
2017-09-15T05:32:30.975Z,11.80
2017-09-15T05:34:57.841Z,12.00
2017-09-15T05:37:24.776Z,12.00
2017-09-15T05:39:51.657Z,12.10
2017-09-15T05:42:18.664Z,12.10
2017-09-15T05:44:45.520Z,12.00
2017-09-15T05:47:12.401Z,12.00
2017-09-15T05:49:39.357Z,12.10
2017-09-15T05:52:06.220Z,12.20
2017-09-15T05:54:33.117Z,12.20
2017-09-15T05:57:00.130Z,12.10
2017-09-15T05:59:26.995Z,12.20
2017-09-15T06:01:53.853Z,12.20
2017-09-15T06:04:20.785Z,12.20
2017-09-15T06:06:47.656Z,12.20
2017-09-15T06:09:14.623Z,12.30
2017-09-15T06:11:41.488Z,12.30
2017-09-15T06:14:08.403Z,12.30
2017-09-15T06:16:35.341Z,12.30
2017-09-15T06:19:03.764Z,12.40
2017-09-15T06:21:31.365Z,12.40
2017-09-15T06:23:58.357Z,12.50
2017-09-15T06:26:30.390Z,12.40
2017-09-15T06:28:57.600Z,12.50
2017-09-15T06:31:25.231Z,12.60
2017-09-15T06:33:52.145Z,12.60
2017-09-15T06:36:19.012Z,12.70
2017-09-15T06:38:46.025Z,12.70
2017-09-15T06:41:12.879Z,12.70
2017-09-15T06:43:39.746Z,12.70
2017-09-15T06:46:08.007Z,12.80
2017-09-15T06:48:34.902Z,12.90
2017-09-15T06:51:01.844Z,13.00
2017-09-15T06:53:28.763Z,13.00
2017-09-15T06:55:55.641Z,13.10
2017-09-15T06:58:23.420Z,13.30
2017-09-15T07:00:52.369Z,13.30
2017-09-15T07:03:19.320Z,13.30
2017-09-15T07:05:46.181Z,13.40
2017-09-15T07:08:13.044Z,13.40
2017-09-15T07:10:41.342Z,13.50
2017-09-15T07:13:08.296Z,13.40
2017-09-15T07:15:38.632Z,13.40
2017-09-15T07:18:06.727Z,13.60
2017-09-15T07:20:36.625Z,13.60
2017-09-15T07:23:03.748Z,13.70
2017-09-15T07:25:30.693Z,13.80
2017-09-15T07:28:09.374Z,13.80
2017-09-15T07:30:47.048Z,14.00
2017-09-15T07:33:26.363Z,13.90
2017-09-15T07:35:56.980Z,14.00
2017-09-15T07:38:35.444Z,14.00
2017-09-15T07:41:03.590Z,14.10
2017-09-15T07:43:32.099Z,14.20
2017-09-15T07:45:58.973Z,14.30
2017-09-15T07:48:26.687Z,14.60
2017-09-15T07:50:55.786Z,14.50
2017-09-15T07:53:22.913Z,14.60
2017-09-15T07:58:42.600Z,14.60
2017-09-15T08:01:09.570Z,14.60
2017-09-15T08:03:38.080Z,14.60
2017-09-15T08:06:05.029Z,14.70
2017-09-15T08:08:31.920Z,14.70
2017-09-15T08:11:05.302Z,14.80
2017-09-15T08:13:34.644Z,14.80
2017-09-15T08:16:01.709Z,14.90
2017-09-15T08:18:30.625Z,15.00
2017-09-15T08:20:57.728Z,15.10
2017-09-15T08:23:32.019Z,15.20
2017-09-15T08:26:03.800Z,15.10
2017-09-15T08:28:40.068Z,15.20
2017-09-15T08:31:21.241Z,15.10
2017-09-15T08:33:48.925Z,15.00
2017-09-15T08:36:17.152Z,15.10
2017-09-15T08:38:44.169Z,15.20
2017-09-15T08:41:24.141Z,15.20
2017-09-15T08:44:05.502Z,16.10
2017-09-15T08:46:34.526Z,16.10
2017-09-15T08:49:09.054Z,17.00
2017-09-15T08:51:37.050Z,17.80
2017-09-15T08:54:10.371Z,18.70
2017-09-15T08:56:38.719Z,18.80
2017-09-15T08:59:23.495Z,20.20
2017-09-15T09:01:54.132Z,20.90
2017-09-15T09:04:35.117Z,20.80
2017-09-15T09:07:04.884Z,21.50
2017-09-15T09:09:34.308Z,22.50
2017-09-15T09:12:03.445Z,23.80
2017-09-15T09:14:31.906Z,23.80
2017-09-15T09:17:00.422Z,24.70
2017-09-15T09:19:29.520Z,24.90
2017-09-15T09:21:56.695Z,24.70
2017-09-15T09:24:23.683Z,25.10
2017-09-15T09:26:50.676Z,25.00
2017-09-15T09:29:20.116Z,24.60
2017-09-15T09:31:47.040Z,23.20
2017-09-15T09:34:15.869Z,22.90
2017-09-15T09:36:56.491Z,23.30
2017-09-15T09:39:25.172Z,21.70
2017-09-15T09:41:52.103Z,21.70
2017-09-15T09:44:20.756Z,20.70
2017-09-15T09:47:00.705Z,20.40
2017-09-15T09:49:27.736Z,20.50
2017-09-15T09:51:59.823Z,20.30
2017-09-15T09:54:27.510Z,20.20
2017-09-15T09:56:59.897Z,20.20
2017-09-15T09:59:29.587Z,20.60
2017-09-15T10:02:06.855Z,21.10
2017-09-15T10:04:35.436Z,20.70
2017-09-15T10:07:11.827Z,20.40
2017-09-15T10:09:41.401Z,20.00
2017-09-15T10:12:21.027Z,19.60
2017-09-15T10:17:49.615Z,19.30
2017-09-15T10:20:19.830Z,19.50
2017-09-15T10:22:57.706Z,19.40
2017-09-15T10:28:12.761Z,19.20
2017-09-15T10:30:51.366Z,19.50
2017-09-15T10:33:32.839Z,19.50
2017-09-15T10:36:04.439Z,19.80
2017-09-15T10:38:32.354Z,19.70
2017-09-15T10:40:59.217Z,19.70
2017-09-15T10:43:32.203Z,19.30
2017-09-15T10:45:59.127Z,18.90
2017-09-15T10:48:26.882Z,18.70
2017-09-15T10:50:53.772Z,18.50
2017-09-15T10:53:20.729Z,18.30
2017-09-15T10:55:48.423Z,17.80
2017-09-15T10:58:21.357Z,17.70
2017-09-15T11:00:48.358Z,17.60
2017-09-15T11:03:15.268Z,17.50
2017-09-15T11:05:42.199Z,17.60
2017-09-15T11:08:11.796Z,17.70
2017-09-15T11:10:39.813Z,18.10
2017-09-15T11:13:07.428Z,18.70
2017-09-15T11:15:34.307Z,18.70
2017-09-15T11:18:01.230Z,19.00
2017-09-15T11:20:28.187Z,19.10
2017-09-15T11:22:55.040Z,19.70
2017-09-15T11:25:33.270Z,20.30
2017-09-15T11:28:00.264Z,20.90
2017-09-15T11:30:28.540Z,20.90
2017-09-15T11:32:59.092Z,20.70
2017-09-15T11:35:26.073Z,20.80
2017-09-15T11:37:53.032Z,20.50
2017-09-15T11:40:19.928Z,20.20
2017-09-15T11:42:46.800Z,20.40
2017-09-15T11:45:14.494Z,20.20
2017-09-15T11:47:41.376Z,20.20
2017-09-15T11:50:08.245Z,20.50
2017-09-15T11:52:35.926Z,20.30
2017-09-15T11:55:03.560Z,19.90
2017-09-15T11:57:30.476Z,19.90
2017-09-15T11:59:57.548Z,19.70
2017-09-15T12:02:24.490Z,19.50
2017-09-15T12:04:51.360Z,19.30
2017-09-15T12:07:19.138Z,19.50
2017-09-15T12:09:46.892Z,19.90
2017-09-15T12:12:14.582Z,20.50
2017-09-15T12:14:41.448Z,20.40
2017-09-15T12:17:09.189Z,20.60
2017-09-15T12:19:36.230Z,20.60
2017-09-15T12:22:06.830Z,20.60
2017-09-15T12:24:33.891Z,20.40
2017-09-15T12:27:02.472Z,20.00
2017-09-15T12:29:35.333Z,19.70
2017-09-15T12:32:02.983Z,18.70
2017-09-15T12:34:31.833Z,18.70
2017-09-15T12:37:04.572Z,18.20
2017-09-15T12:39:38.060Z,18.20
2017-09-15T12:42:06.648Z,17.30
2017-09-15T12:44:37.998Z,17.30
2017-09-15T12:47:04.857Z,17.20
2017-09-15T12:49:38.628Z,17.10
2017-09-15T12:52:20.599Z,16.90
2017-09-15T12:54:58.476Z,16.60
2017-09-15T12:57:25.412Z,16.20
2017-09-15T13:00:03.338Z,16.10
2017-09-15T13:02:34.140Z,16.10
2017-09-15T13:05:01.138Z,16.30
2017-09-15T13:07:28.021Z,16.70
2017-09-15T13:09:54.960Z,17.20
2017-09-15T13:12:21.885Z,17.30
2017-09-15T13:14:48.832Z,17.40
2017-09-15T13:17:16.146Z,17.50
2017-09-15T13:19:43.088Z,17.80
2017-09-15T13:22:21.853Z,18.00
2017-09-15T13:24:56.662Z,18.50
2017-09-15T13:27:36.176Z,18.50
2017-09-15T13:30:03.882Z,18.70
2017-09-15T13:32:30.827Z,18.90
2017-09-15T13:34:57.709Z,19.20
2017-09-15T13:37:25.039Z,19.30
2017-09-15T13:39:51.949Z,19.40
2017-09-15T13:42:18.923Z,19.40
2017-09-15T13:44:45.893Z,19.50
2017-09-15T13:47:17.292Z,19.30
2017-09-15T13:49:44.576Z,19.20
2017-09-15T13:52:23.149Z,19.00
2017-09-15T13:55:03.701Z,18.90
2017-09-15T13:57:49.106Z,18.90
2017-09-15T14:00:31.505Z,19.30
2017-09-15T14:03:14.265Z,19.30
2017-09-15T14:05:54.063Z,19.40
2017-09-15T14:08:37.073Z,19.40
2017-09-15T14:11:19.175Z,19.00
2017-09-15T14:14:00.371Z,19.10
2017-09-15T14:16:40.790Z,19.20
2017-09-15T14:19:21.885Z,19.20
2017-09-15T14:21:55.142Z,19.10
2017-09-15T14:24:23.131Z,18.90
2017-09-15T14:27:03.997Z,18.90
2017-09-15T14:29:34.443Z,18.90
2017-09-15T14:34:56.903Z,18.20
2017-09-15T14:37:36.456Z,18.20
2017-09-15T14:40:04.812Z,18.00
2017-09-15T14:42:31.709Z,18.00
2017-09-15T14:45:12.428Z,17.80
2017-09-15T14:47:41.516Z,17.70
2017-09-15T14:50:11.819Z,17.40
2017-09-15T14:52:50.653Z,17.40
2017-09-15T14:55:31.368Z,17.30
2017-09-15T14:58:09.673Z,17.20
2017-09-15T15:00:46.042Z,17.20
2017-09-15T15:03:27.191Z,17.20
2017-09-15T15:05:56.901Z,17.00
2017-09-15T15:08:34.020Z,16.10
2017-09-15T15:11:00.892Z,16.10
2017-09-15T15:13:28.066Z,16.30
2017-09-15T15:16:08.701Z,16.40
2017-09-15T15:18:46.426Z,16.50
2017-09-15T15:21:26.850Z,16.30
2017-09-15T15:24:06.897Z,15.30
2017-09-15T15:29:22.594Z,15.70
2017-09-15T15:32:04.489Z,15.70
2017-09-15T15:34:47.045Z,15.70
2017-09-15T15:37:28.798Z,15.80
2017-09-15T15:39:56.909Z,15.80
2017-09-15T15:42:23.765Z,16.10
2017-09-15T15:44:51.831Z,16.00
2017-09-15T15:47:18.772Z,16.10
2017-09-15T15:49:45.744Z,16.10
2017-09-15T15:52:12.692Z,16.00
2017-09-15T15:54:39.588Z,15.60
2017-09-15T15:57:06.604Z,15.70
2017-09-15T15:59:36.284Z,15.40
2017-09-15T16:02:06.996Z,15.40
2017-09-15T16:04:46.765Z,15.30
2017-09-15T16:07:15.370Z,15.30
2017-09-15T16:09:46.785Z,15.10
2017-09-15T16:12:14.784Z,15.10
2017-09-15T16:14:47.316Z,15.10
2017-09-15T16:17:18.568Z,15.10
2017-09-15T16:19:53.923Z,15.10
2017-09-15T16:22:31.187Z,15.00
2017-09-15T16:25:07.987Z,15.10
2017-09-15T16:27:39.061Z,15.10
2017-09-15T16:30:06.786Z,15.10
2017-09-15T16:32:34.303Z,15.10
2017-09-15T16:35:04.526Z,14.80
2017-09-15T16:37:36.766Z,14.80
2017-09-15T16:40:12.067Z,14.80
2017-09-15T16:42:48.698Z,14.70
2017-09-15T16:45:24.583Z,14.50
2017-09-15T16:48:00.485Z,14.50
2017-09-15T16:50:29.735Z,14.50
2017-09-15T16:53:00.830Z,14.50
2017-09-15T16:55:32.772Z,14.40
2017-09-15T16:58:05.289Z,14.50
2017-09-15T17:00:32.535Z,14.40
2017-09-15T17:02:59.501Z,14.60
2017-09-15T17:05:27.199Z,14.80
2017-09-15T17:07:54.284Z,14.80
2017-09-15T17:10:22.411Z,14.90
2017-09-15T17:12:49.478Z,14.60
2017-09-15T17:15:16.370Z,14.80
2017-09-15T17:17:43.237Z,14.70
2017-09-15T17:20:12.664Z,14.50
2017-09-15T17:22:40.658Z,14.50
2017-09-15T17:25:08.925Z,14.50
2017-09-15T17:27:35.818Z,14.40
2017-09-15T17:30:03.689Z,14.30
2017-09-15T17:32:31.368Z,14.30
2017-09-15T17:34:59.064Z,14.20
2017-09-15T17:37:25.936Z,14.10
2017-09-15T17:39:53.004Z,14.10
2017-09-15T17:42:19.956Z,14.00
2017-09-15T17:44:47.593Z,13.90
2017-09-15T17:47:14.618Z,13.90
2017-09-15T17:49:47.696Z,13.90
2017-09-15T17:52:14.731Z,13.80
2017-09-15T17:54:41.630Z,13.70
2017-09-15T17:57:10.729Z,13.60
2017-09-15T17:59:38.440Z,13.60
2017-09-15T18:02:06.022Z,13.50
2017-09-15T18:04:38.379Z,13.50
2017-09-15T18:07:05.329Z,13.50
2017-09-15T18:09:32.343Z,13.50
2017-09-15T18:11:59.969Z,13.40
2017-09-15T18:14:28.305Z,13.30
2017-09-15T18:16:56.497Z,13.30
2017-09-15T18:19:23.481Z,13.30
2017-09-15T18:21:50.513Z,13.30
2017-09-15T18:24:19.007Z,13.20
2017-09-15T18:26:46.524Z,13.20
2017-09-15T18:29:13.480Z,13.10
2017-09-15T18:31:40.323Z,13.00
2017-09-15T18:34:07.202Z,13.00
2017-09-15T18:36:34.404Z,13.00
2017-09-15T18:39:01.267Z,13.00
2017-09-15T18:41:28.238Z,12.90
2017-09-15T18:43:56.514Z,13.00
2017-09-15T18:46:25.029Z,13.00
2017-09-15T18:48:52.173Z,13.00
2017-09-15T18:51:19.151Z,13.00
2017-09-15T18:53:46.788Z,13.00
2017-09-15T18:56:19.768Z,13.00
2017-09-15T18:58:46.780Z,13.00
2017-09-15T19:01:14.600Z,13.00
2017-09-15T19:03:43.360Z,13.10
2017-09-15T19:06:12.751Z,13.00
2017-09-15T19:08:41.471Z,13.00
2017-09-15T19:11:08.417Z,13.00
2017-09-15T19:13:35.358Z,13.00
2017-09-15T19:16:02.721Z,13.00
2017-09-15T19:18:29.725Z,12.90
2017-09-15T19:20:56.714Z,12.90
2017-09-15T19:23:34.349Z,12.80
2017-09-15T19:26:02.352Z,12.80
2017-09-15T19:28:29.356Z,12.80
2017-09-15T19:30:56.483Z,12.80
2017-09-15T19:33:23.384Z,12.80
2017-09-15T19:35:50.345Z,12.70
2017-09-15T19:38:17.234Z,12.60
2017-09-15T19:40:44.116Z,12.60
2017-09-15T19:43:11.056Z,12.60
2017-09-15T19:45:37.937Z,12.50
2017-09-15T19:48:04.891Z,12.50
2017-09-15T19:50:31.864Z,12.40
2017-09-15T19:52:59.046Z,12.50
2017-09-15T19:55:25.956Z,12.40
2017-09-15T19:57:53.813Z,12.40
2017-09-15T20:00:20.852Z,12.30
2017-09-15T20:02:47.750Z,12.10
2017-09-15T20:05:14.754Z,12.20
2017-09-15T20:07:42.444Z,12.10
2017-09-15T20:10:09.369Z,12.10
2017-09-15T20:12:37.810Z,12.10
2017-09-15T20:15:07.783Z,12.00
2017-09-15T20:17:36.043Z,12.00
2017-09-15T20:20:03.259Z,11.90
2017-09-15T20:22:32.825Z,11.80
2017-09-15T20:25:02.728Z,11.80
2017-09-15T20:27:30.891Z,11.70
2017-09-15T20:29:59.341Z,11.60
2017-09-15T20:32:27.023Z,11.60
2017-09-15T20:34:53.914Z,11.60
2017-09-15T20:37:21.839Z,11.60
2017-09-15T20:39:48.841Z,11.60
2017-09-15T20:42:18.689Z,11.60
2017-09-15T20:44:49.014Z,11.60
2017-09-15T20:47:20.846Z,11.50
2017-09-15T20:49:48.069Z,11.50
2017-09-15T20:52:16.236Z,11.50
2017-09-15T20:54:45.265Z,11.50
2017-09-15T20:57:12.293Z,11.50
2017-09-15T20:59:39.920Z,11.50
2017-09-15T21:02:09.876Z,11.50
2017-09-15T21:04:36.933Z,11.50
2017-09-15T21:07:03.873Z,11.50
2017-09-15T21:09:35.461Z,11.40
2017-09-15T21:12:02.857Z,11.40
2017-09-15T21:14:29.889Z,11.30
2017-09-15T21:16:56.841Z,11.30
2017-09-15T21:19:23.825Z,11.20
2017-09-15T21:21:50.720Z,11.20
2017-09-15T21:24:17.668Z,11.20
2017-09-15T21:26:44.559Z,11.10
2017-09-15T21:29:11.535Z,11.00
2017-09-15T21:31:38.420Z,10.90
2017-09-15T21:34:05.305Z,10.90
2017-09-15T21:36:32.288Z,10.80
2017-09-15T21:39:10.607Z,10.80
2017-09-15T21:41:50.212Z,10.80
2017-09-15T21:44:18.058Z,10.70
2017-09-15T21:46:45.086Z,10.70
2017-09-15T21:49:11.998Z,10.70
2017-09-15T21:51:38.931Z,10.80
2017-09-15T21:54:05.897Z,10.80
2017-09-15T21:56:32.932Z,10.80
2017-09-15T21:58:59.847Z,10.80
2017-09-15T22:01:26.803Z,10.90
2017-09-15T22:03:59.782Z,10.80
2017-09-15T22:06:26.749Z,10.80
2017-09-15T22:08:53.685Z,10.70
2017-09-15T22:11:20.561Z,10.60
2017-09-15T22:13:47.517Z,10.60
2017-09-15T22:16:14.386Z,10.60
2017-09-15T22:18:42.089Z,10.40
2017-09-15T22:21:08.974Z,10.40
2017-09-15T22:23:35.846Z,10.40
2017-09-15T22:26:03.605Z,10.40
2017-09-15T22:28:31.226Z,10.30
2017-09-15T22:30:58.117Z,10.30
2017-09-15T22:33:25.088Z,10.30
2017-09-15T22:35:51.983Z,10.30
2017-09-15T22:38:18.931Z,10.30
2017-09-15T22:40:45.884Z,10.40
2017-09-15T22:43:12.787Z,10.40
2017-09-15T22:45:39.676Z,10.40
2017-09-15T22:48:06.624Z,10.40
2017-09-15T22:50:33.613Z,10.40
2017-09-15T22:53:00.480Z,10.30
2017-09-15T22:55:27.490Z,10.30
2017-09-15T22:57:55.119Z,10.30
2017-09-15T23:00:22.012Z,10.30
2017-09-15T23:02:49.059Z,10.30
2017-09-15T23:05:15.991Z,10.20
2017-09-15T23:07:43.678Z,10.20
2017-09-15T23:10:10.629Z,10.20
2017-09-15T23:12:37.542Z,10.10
2017-09-15T23:15:05.177Z,10.10
2017-09-15T23:17:32.120Z,10.10
2017-09-15T23:19:59.094Z,10.00
2017-09-15T23:22:25.959Z,10.00
2017-09-15T23:24:52.887Z,9.90
2017-09-15T23:27:20.588Z,9.90
2017-09-15T23:29:47.460Z,9.90
2017-09-15T23:32:14.407Z,10.00
2017-09-15T23:34:41.312Z,9.90
2017-09-15T23:37:08.270Z,10.00
2017-09-15T23:39:35.167Z,9.90
2017-09-15T23:42:02.135Z,9.90
2017-09-15T23:44:29.836Z,9.90
2017-09-15T23:46:56.699Z,9.90
2017-09-15T23:49:23.649Z,9.90
2017-09-15T23:51:50.527Z,9.80
2017-09-15T23:54:18.244Z,9.70
2017-09-15T23:56:45.266Z,9.70
2017-09-15T23:59:12.137Z,9.70
